Time;durP1;ratioP1;P1;durP2;ratioP2;P2;SDS_P1;SDS_P2;PMS_P1;PMS_P2;Temp;Humidity;BMP_temperature;BMP_pressure;BME280_temperature;BME280_humidity;BME280_pressure;Samples;Min_cycle;Max_cycle;Signal;HPM_P1;HPM_P2
2023/10/06 00:02:37;;;;;;;32.05;14.28;;;;;;;15.62;44.57;100473.42;1768641;81;21315;-82
2023/10/06 00:05:30;;;;;;;34.53;13.08;;;;;;;15.60;44.56;100464.84;1770167;81;21303;-82
2023/10/06 00:08:40;;;;;;;37.78;14.05;;;;;;;15.57;44.70;100459.76;1739489;82;21801;-81
2023/10/06 00:11:45;;;;;;;31.93;14.30;;;;;;;15.68;44.55;100457.50;1738081;82;21295;-82
2023/10/06 00:14:51;;;;;;;29.00;14.23;;;;;;;15.70;44.68;100456.75;1740569;82;21850;-81
2023/10/06 00:18:00;;;;;;;36.53;14.60;;;;;;;15.77;44.60;100452.97;1738994;82;21910;-82
2023/10/06 00:21:14;;;;;;;30.45;13.32;;;;;;;15.72;44.77;100446.38;1736571;82;21660;-81
2023/10/06 00:24:12;;;;;;;26.15;13.60;;;;;;;15.74;44.74;100449.23;1722909;83;21241;-81
2023/10/06 00:27:24;;;;;;;37.05;14.18;;;;;;;15.72;44.77;100448.61;1724506;83;21330;-81
2023/10/06 00:30:28;;;;;;;35.30;15.13;;;;;;;15.79;44.65;100448.61;1745147;81;21303;-81
2023/10/06 00:33:41;;;;;;;31.12;14.75;;;;;;;15.57;44.86;100440.45;1769071;81;21838;-81
2023/10/06 00:36:51;;;;;;;32.38;14.63;;;;;;;15.46;45.06;100444.31;1702944;84;21902;-81
2023/10/06 00:39:55;;;;;;;30.55;14.38;;;;;;;15.44;45.03;100444.53;1694916;84;22561;-81
2023/10/06 00:43:05;;;;;;;39.63;15.15;;;;;;;15.41;45.25;100449.59;1693669;84;21909;-81
2023/10/06 00:46:14;;;;;;;27.70;13.13;;;;;;;15.46;45.18;100447.91;1692580;83;21344;-81
2023/10/06 00:49:23;;;;;;;29.25;13.90;;;;;;;15.45;45.16;100436.58;1705978;83;21701;-81
2023/10/06 00:52:29;;;;;;;42.20;15.50;;;;;;;15.43;45.19;100438.70;1719769;82;21312;-81
2023/10/06 00:55:36;;;;;;;40.35;15.83;;;;;;;15.56;44.84;100442.02;1718715;83;21872;-81
2023/10/06 00:58:44;;;;;;;37.38;14.68;;;;;;;15.44;45.13;100445.91;1718445;83;21316;-81
2023/10/06 01:01:52;;;;;;;33.28;15.50;;;;;;;15.55;44.88;100441.17;1718717;83;21364;-81
2023/10/06 01:05:00;;;;;;;36.70;15.78;;;;;;;15.59;44.75;100443.00;1719151;83;21391;-81
2023/10/06 01:08:11;;;;;;;33.02;16.12;;;;;;;15.43;45.05;100442.84;1746601;82;21953;-81
2023/10/06 01:11:26;;;;;;;36.42;15.50;;;;;;;15.53;44.96;100441.92;1749575;82;21318;-81
2023/10/06 01:14:21;;;;;;;39.15;13.98;;;;;;;15.53;45.01;100436.41;1749370;82;21307;-81
2023/10/06 01:17:26;;;;;;;36.68;15.35;;;;;;;15.54;45.05;100436.72;1718540;83;21359;-81
2023/10/06 01:20:40;;;;;;;38.63;15.78;;;;;;;15.42;45.16;100432.84;1718304;83;21320;-81
2023/10/06 01:23:41;;;;;;;33.10;14.33;;;;;;;15.33;45.48;100432.69;1748359;82;21299;-81
2023/10/06 01:26:49;;;;;;;35.35;15.28;;;;;;;15.56;45.03;100432.38;1749718;82;21350;-81
2023/10/06 01:33:18;;;;;;;35.43;14.15;;;;;;;15.53;45.13;100428.67;1718892;83;21950;-81
2023/10/06 01:36:24;;;;;;;36.73;14.78;;;;;;;15.60;44.97;100427.62;1718467;83;21362;-81
2023/10/06 01:39:35;;;;;;;36.75;14.35;;;;;;;15.66;44.85;100423.21;1719592;83;22630;-81
2023/10/06 01:42:42;;;;;;;36.45;15.00;;;;;;;15.55;44.96;100427.39;1719231;83;21331;-81
2023/10/06 01:45:48;;;;;;;43.63;13.85;;;;;;;15.49;45.24;100426.00;1718620;83;22033;-81
2023/10/06 01:48:55;;;;;;;38.15;14.47;;;;;;;15.68;44.90;100428.01;1719030;83;21359;-81
2023/10/06 01:52:08;;;;;;;32.17;14.38;;;;;;;15.79;44.73;100421.88;1719773;83;21325;-81
2023/10/06 01:55:21;;;;;;;34.18;14.43;;;;;;;15.75;45.04;100424.73;1719328;83;21332;-81
2023/10/06 01:58:24;;;;;;;39.98;14.83;;;;;;;15.82;44.98;100420.63;1719751;83;21886;-82
2023/10/06 02:01:29;;;;;;;38.02;14.13;;;;;;;15.60;45.45;100422.11;1719057;83;21375;-82
2023/10/06 02:04:39;;;;;;;39.60;14.78;;;;;;;15.67;45.39;100424.09;1718866;83;21939;-81
2023/10/06 02:07:44;;;;;;;38.23;15.28;;;;;;;15.91;45.01;100420.77;1719593;83;21353;-81
2023/10/06 02:10:51;;;;;;;40.33;15.38;;;;;;;15.90;44.98;100417.66;1719618;83;21974;-82
2023/10/06 02:13:56;;;;;;;29.07;12.88;;;;;;;15.90;45.16;100411.30;1719728;83;21348;-81
2023/10/06 02:17:11;;;;;;;48.83;14.38;;;;;;;16.06;44.88;100404.87;1748267;82;21303;-80
2023/10/06 02:23:37;;;;;;;30.12;13.45;;;;;;;16.19;44.63;100410.10;1749427;82;21321;-80
2023/10/06 02:26:41;;;;;;;33.35;12.93;;;;;;;16.30;44.35;100414.98;1727954;82;21965;-80
2023/10/06 02:29:46;;;;;;;37.85;14.45;;;;;;;16.21;44.22;100416.24;1745211;82;21882;-80
2023/10/06 02:32:55;;;;;;;29.87;13.48;;;;;;;16.21;44.03;100420.38;1719976;83;21293;-80
2023/10/06 02:36:15;;;;;;;38.30;14.93;;;;;;;16.27;43.97;100413.48;1719716;82;21887;-80
2023/10/06 02:39:09;;;;;;;32.58;12.82;;;;;;;16.34;43.84;100410.74;1718514;83;21934;-80
2023/10/06 02:42:19;;;;;;;32.95;14.60;;;;;;;16.45;43.78;100414.23;1718330;83;21352;-80
2023/10/06 02:45:21;;;;;;;26.97;12.68;;;;;;;16.28;44.20;100408.84;1719614;82;21375;-80
2023/10/06 02:48:33;;;;;;;33.30;13.80;;;;;;;16.30;44.28;100408.08;1719573;83;21328;-81
2023/10/06 02:51:47;;;;;;;33.45;12.73;;;;;;;16.34;44.12;100406.60;1719178;83;21355;-80
2023/10/06 02:54:47;;;;;;;34.40;14.28;;;;;;;16.23;44.01;100401.19;1719686;83;21320;-80
2023/10/06 02:57:56;;;;;;;40.08;14.40;;;;;;;16.33;43.55;100382.83;1718260;83;21325;-80
2023/10/06 03:01:03;;;;;;;36.40;14.03;;;;;;;16.42;43.16;100390.34;1717963;83;21351;-81
2023/10/06 03:04:11;;;;;;;31.68;14.65;;;;;;;16.30;43.19;100382.70;1719555;83;22613;-81
2023/10/06 03:07:14;;;;;;;28.05;13.98;;;;;;;16.28;43.14;100391.74;1718327;83;21945;-80
2023/10/06 03:10:08;;;;;;;35.55;14.13;;;;;;;16.14;43.37;100382.26;1736837;82;21943;-80
2023/10/06 03:13:16;;;;;;;41.58;15.18;;;;;;;16.12;43.50;100383.86;1716213;83;21366;-80
2023/10/06 03:16:20;;;;;;;31.60;14.20;;;;;;;16.21;43.44;100378.45;1720492;80;21309;-81
2023/10/06 03:19:27;;;;;;;36.93;15.65;;;;;;;16.17;43.61;100379.94;1721640;83;21334;-80
2023/10/06 03:22:43;;;;;;;33.58;15.25;;;;;;;16.15;43.86;100375.70;1721746;83;21305;-80
2023/10/06 03:25:43;;;;;;;43.38;15.53;;;;;;;16.08;44.18;100374.30;1721927;83;21330;-80
2023/10/06 03:28:52;;;;;;;32.17;14.30;;;;;;;16.13;44.15;100373.67;1721700;83;21321;-80
2023/10/06 03:31:59;;;;;;;40.55;13.98;;;;;;;16.22;43.98;100371.86;1722277;83;21307;-80
2023/10/06 03:35:45;;;;;;;33.83;14.98;;;;;;;16.19;44.07;100364.56;1700162;83;21349;-80
2023/10/06 03:38:27;;;;;;;36.13;14.95;;;;;;;16.19;44.15;100364.56;1720222;83;21333;-80
2023/10/06 03:42:00;;;;;;;32.65;15.43;;;;;;;16.24;44.08;100366.16;1722849;83;21667;-80
2023/10/06 03:44:29;;;;;;;41.00;15.93;;;;;;;16.34;43.98;100361.05;1714705;83;21309;-80
2023/10/06 03:47:34;;;;;;;33.75;16.42;;;;;;;16.14;44.45;100353.28;1720698;83;21380;-80
2023/10/06 03:50:40;;;;;;;44.63;14.70;;;;;;;16.31;44.13;100351.28;1721236;83;21348;-81
2023/10/06 03:53:45;;;;;;;36.70;14.58;;;;;;;16.13;44.44;100350.21;1721141;83;21373;-80
2023/10/06 03:56:53;;;;;;;31.45;15.93;;;;;;;16.06;44.65;100348.84;1721705;83;21325;-80
2023/10/06 04:00:00;;;;;;;44.38;16.02;;;;;;;16.09;44.67;100349.28;1722054;83;21301;-80
2023/10/06 04:03:09;;;;;;;31.42;14.45;;;;;;;16.07;44.80;100340.34;1721856;83;21251;-80
2023/10/06 04:06:15;;;;;;;32.45;15.15;;;;;;;16.05;44.89;100343.86;1721316;82;21989;-80
2023/10/06 04:09:27;;;;;;;35.83;13.65;;;;;;;15.93;45.16;100344.69;1721690;83;21320;-80
2023/10/06 04:12:28;;;;;;;37.08;14.63;;;;;;;15.98;45.30;100340.77;1721724;83;21348;-82
2023/10/06 04:15:38;;;;;;;47.88;15.18;;;;;;;16.18;45.02;100344.38;1722538;83;21889;-80
2023/10/06 04:18:47;;;;;;;33.18;12.53;;;;;;;16.30;44.81;100337.16;1721274;83;21314;-80
2023/10/06 04:21:50;;;;;;;39.63;15.03;;;;;;;16.37;44.68;100339.91;1721097;83;21353;-80
2023/10/06 04:24:55;;;;;;;36.17;14.58;;;;;;;16.36;44.77;100343.73;1713672;83;21968;-80
2023/10/06 04:28:02;;;;;;;34.73;13.15;;;;;;;16.27;44.92;100344.48;1713386;83;21914;-80
2023/10/06 04:31:07;;;;;;;32.03;13.78;;;;;;;16.24;45.04;100348.22;1724654;81;21374;-80
2023/10/06 04:34:14;;;;;;;34.95;13.80;;;;;;;16.30;45.04;100346.83;1735230;81;21321;-80
2023/10/06 04:37:19;;;;;;;34.83;14.40;;;;;;;16.33;45.37;100344.19;1728577;81;21698;-80
2023/10/06 04:40:27;;;;;;;36.53;14.07;;;;;;;16.44;45.77;100343.53;1723803;82;21389;-80
2023/10/06 04:43:34;;;;;;;43.87;14.63;;;;;;;16.64;45.67;100345.41;1732742;81;21322;-80
2023/10/06 04:46:39;;;;;;;34.40;14.10;;;;;;;16.56;45.88;100343.20;1770929;80;22609;-80
2023/10/06 04:49:47;;;;;;;36.45;14.35;;;;;;;16.66;46.12;100338.63;1774418;80;22498;-81
2023/10/06 04:52:54;;;;;;;33.53;15.23;;;;;;;16.70;46.07;100336.25;1776078;80;21325;-80
2023/10/06 04:56:03;;;;;;;37.17;14.35;;;;;;;16.75;46.15;100329.58;1777485;80;21310;-80
2023/10/06 04:59:11;;;;;;;27.55;13.50;;;;;;;16.98;45.94;100321.64;1780440;80;21605;-80
2023/10/06 05:02:18;;;;;;;35.85;13.43;;;;;;;17.03;45.70;100327.40;1764705;79;21293;-80
2023/10/06 05:05:26;;;;;;;28.07;12.90;;;;;;;17.16;46.01;100336.14;1774177;79;21275;-81
2023/10/06 05:08:33;;;;;;;36.00;13.80;;;;;;;17.29;46.41;100339.39;1764310;79;21974;-81
2023/10/06 05:11:43;;;;;;;28.83;12.70;;;;;;;17.06;46.59;100337.14;1765890;79;21296;-81
2023/10/06 05:14:49;;;;;;;34.63;12.98;;;;;;;17.38;45.61;100344.99;1764508;79;21331;-81
2023/10/06 05:17:58;;;;;;;34.18;13.85;;;;;;;17.40;45.48;100343.38;1724091;81;21278;-81
2023/10/06 05:21:09;;;;;;;73.25;26.60;;;;;;;17.33;45.41;100338.73;1727352;81;21306;-81
2023/10/06 05:24:17;;;;;;;45.30;16.12;;;;;;;17.55;45.17;100345.31;1731816;81;21291;-81
2023/10/06 05:27:19;;;;;;;34.73;12.33;;;;;;;17.70;44.53;100348.66;1733824;80;21699;-81
2023/10/06 05:30:13;;;;;;;31.80;11.20;;;;;;;17.67;44.56;100346.31;1735239;81;21326;-81
2023/10/06 05:33:18;;;;;;;20.60;10.80;;;;;;;17.69;44.38;100353.00;1766311;79;21321;-81
2023/10/06 05:36:23;;;;;;;29.75;11.53;;;;;;;18.03;43.89;100351.23;1764851;79;21304;-80
2023/10/06 05:39:28;;;;;;;31.93;10.72;;;;;;;18.20;43.68;100354.81;1764199;79;21805;-80
2023/10/06 05:42:36;;;;;;;27.75;11.25;;;;;;;18.38;43.61;100354.88;1769131;79;21329;-82
2023/10/06 05:45:42;;;;;;;29.27;11.25;;;;;;;18.53;43.37;100347.06;1763833;80;21893;-81
2023/10/06 05:48:51;;;;;;;24.30;10.40;;;;;;;18.44;43.90;100344.27;1768177;79;22367;-81
2023/10/06 05:51:57;;;;;;;27.42;9.83;;;;;;;18.85;43.18;100347.00;1760521;80;21885;-81
2023/10/06 05:55:08;;;;;;;33.65;10.05;;;;;;;19.08;42.74;100349.08;1762590;80;21942;-81
2023/10/06 05:58:19;;;;;;;23.02;10.03;;;;;;;19.47;41.96;100345.50;1737985;81;21290;-85
2023/10/06 06:01:20;;;;;;;25.30;10.45;;;;;;;19.86;41.27;100345.53;1737594;81;21324;-82
2023/10/06 06:04:27;;;;;;;28.85;11.00;;;;;;;20.14;40.81;100345.72;1740921;81;21909;-82
2023/10/06 06:07:35;;;;;;;30.97;10.13;;;;;;;20.35;40.63;100346.23;1744478;81;22361;-80
2023/10/06 06:10:45;;;;;;;27.50;9.90;;;;;;;20.42;40.58;100338.09;1732248;81;21249;-80
2023/10/06 06:13:57;;;;;;;33.43;11.50;;;;;;;20.54;40.21;100329.78;1716271;81;21307;-81
2023/10/06 06:17:06;;;;;;;24.20;9.90;;;;;;;20.43;40.12;100327.28;1685008;82;21172;-81
2023/10/06 06:20:14;;;;;;;27.98;9.23;;;;;;;20.54;39.60;100321.45;1717046;82;21295;-81
2023/10/06 06:23:26;;;;;;;25.50;9.68;;;;;;;20.58;39.45;100327.38;1692919;83;21336;-81
2023/10/06 06:26:33;;;;;;;23.95;9.83;;;;;;;20.51;39.28;100314.97;1699979;84;21334;-82
2023/10/06 06:33:08;;;;;;;27.55;11.03;;;;;;;20.66;38.92;100307.56;1672093;83;21208;-82
2023/10/06 06:36:15;;;;;;;28.67;11.60;;;;;;;20.72;38.91;100308.52;1697723;83;22480;-82
2023/10/06 06:39:21;;;;;;;26.07;11.55;;;;;;;20.92;38.63;100313.14;1705413;83;21319;-82
2023/10/06 06:42:27;;;;;;;31.80;12.65;;;;;;;20.93;38.79;100314.82;1723380;82;21260;-82
2023/10/06 06:45:39;;;;;;;28.20;9.90;;;;;;;21.18;38.65;100308.44;1724000;82;21310;-82
2023/10/06 06:48:46;;;;;;;26.45;11.30;;;;;;;21.47;38.26;100303.47;1707683;83;21302;-82
2023/10/06 06:52:01;;;;;;;27.37;10.10;;;;;;;21.45;37.93;100303.70;1755017;81;21310;-80
2023/10/06 06:55:20;;;;;;;22.50;10.32;;;;;;;21.61;37.53;100301.53;1715004;78;21168;-80
2023/10/06 06:58:32;;;;;;;35.00;10.20;;;;;;;21.73;37.42;100300.62;1794273;79;21191;-81
2023/10/06 07:01:42;;;;;;;33.92;11.35;;;;;;;21.95;37.09;100297.41;1759975;81;21699;-82
2023/10/06 07:04:48;;;;;;;28.52;9.90;;;;;;;22.16;36.94;100300.89;1758088;79;21334;-81
2023/10/06 07:07:56;;;;;;;23.27;9.35;;;;;;;22.37;36.83;100296.48;1758796;79;21320;-81
2023/10/06 07:11:03;;;;;;;36.23;9.50;;;;;;;22.59;36.57;100291.52;1759362;79;22529;-81
2023/10/06 07:18:14;;;;;;;24.37;7.80;;;;;;;22.70;36.25;100283.04;1754324;80;21279;-81
2023/10/06 07:21:24;;;;;;;24.43;8.58;;;;;;;22.90;36.23;100273.30;1734524;82;21791;-81
2023/10/06 07:24:28;;;;;;;19.52;8.58;;;;;;;23.02;36.30;100280.16;1730913;82;21366;-81
2023/10/06 07:27:36;;;;;;;18.57;7.08;;;;;;;23.38;35.73;100273.05;1709918;81;21311;-82
2023/10/06 07:30:43;;;;;;;14.53;6.20;;;;;;;23.58;34.78;100278.88;1756974;81;21294;-80
2023/10/06 07:33:48;;;;;;;34.50;7.05;;;;;;;23.68;33.80;100277.61;1745921;81;21382;-81
2023/10/06 07:36:53;;;;;;;21.73;6.50;;;;;;;23.91;33.18;100279.79;1746202;80;21329;-82
2023/10/06 07:40:02;;;;;;;12.23;5.28;;;;;;;23.97;32.54;100281.52;1755850;79;21338;-81
2023/10/06 07:43:07;;;;;;;16.17;6.22;;;;;;;24.07;32.03;100284.39;1729712;82;21951;-82
2023/10/06 07:46:15;;;;;;;28.38;6.45;;;;;;;24.13;32.01;100280.52;1703018;83;21340;-82
2023/10/06 07:49:21;;;;;;;18.92;5.72;;;;;;;24.22;32.13;100275.28;1709838;82;21324;-81
2023/10/06 07:52:26;;;;;;;16.40;6.55;;;;;;;24.26;31.75;100268.61;1710977;82;21211;-81
2023/10/06 07:55:32;;;;;;;21.65;6.45;;;;;;;24.19;31.60;100264.11;1709303;82;21212;-82
2023/10/06 07:58:38;;;;;;;12.37;5.42;;;;;;;24.20;31.68;100264.39;1697225;83;21319;-82
2023/10/06 08:01:45;;;;;;;25.92;5.67;;;;;;;24.26;31.50;100250.45;1747122;80;21307;-82
2023/10/06 08:04:51;;;;;;;14.43;4.95;;;;;;;24.23;31.58;100247.09;1715836;81;21314;-81
2023/10/06 08:07:58;;;;;;;26.33;6.45;;;;;;;24.10;31.76;100249.50;1742530;80;21299;-82
2023/10/06 08:11:06;;;;;;;12.55;5.62;;;;;;;24.14;31.86;100248.70;1753220;80;21343;-82
2023/10/06 08:14:13;;;;;;;10.23;5.00;;;;;;;24.21;31.90;100250.69;1711345;81;21181;-81
2023/10/06 08:17:19;;;;;;;11.22;5.30;;;;;;;24.23;31.77;100249.05;1750208;80;21321;-81
2023/10/06 08:20:40;;;;;;;12.70;5.22;;;;;;;24.38;31.67;100242.75;1750898;81;22127;-82
2023/10/06 08:23:47;;;;;;;16.60;6.40;;;;;;;24.31;31.63;100235.11;1731663;81;21319;-82
2023/10/06 08:27:01;;;;;;;11.10;5.37;;;;;;;24.21;31.87;100234.48;1746146;81;21401;-81
2023/10/06 08:30:22;;;;;;;12.25;5.15;;;;;;;24.31;31.65;100246.29;1748132;80;21336;-82
2023/10/06 08:33:43;;;;;;;19.27;5.47;;;;;;;24.36;31.60;100242.13;1741258;81;21338;-81
2023/10/06 08:37:11;;;;;;;17.05;5.25;;;;;;;24.17;31.80;100236.97;1748379;81;21285;-81
2023/10/06 08:40:23;;;;;;;15.68;5.65;;;;;;;24.29;31.68;100236.79;1711966;83;21302;-82
2023/10/06 08:43:27;;;;;;;14.25;4.90;;;;;;;24.39;31.73;100233.25;1715589;81;21274;-82
2023/10/06 08:46:34;;;;;;;13.58;4.55;;;;;;;24.56;31.39;100232.53;1735478;80;21296;-82
2023/10/06 08:49:41;;;;;;;12.18;5.17;;;;;;;24.54;31.31;100223.55;1735645;81;22255;-82
2023/10/06 08:52:54;;;;;;;12.30;4.37;;;;;;;24.70;31.13;100221.67;1747271;81;21241;-82
2023/10/06 08:56:00;;;;;;;16.02;5.20;;;;;;;24.70;30.98;100223.94;1739791;81;22314;-82
2023/10/06 08:59:07;;;;;;;12.28;5.47;;;;;;;24.93;30.76;100224.58;1762844;79;21298;-82
2023/10/06 09:02:16;;;;;;;20.45;6.05;;;;;;;25.06;30.49;100229.67;1766803;80;21452;-81
2023/10/06 09:05:21;;;;;;;15.15;5.25;;;;;;;24.85;30.50;100227.92;1754562;81;21873;-81
2023/10/06 09:08:26;;;;;;;15.70;5.50;;;;;;;24.83;30.46;100227.34;1750351;81;22191;-80
2023/10/06 09:11:45;;;;;;;15.35;5.08;;;;;;;25.06;30.20;100229.67;1765893;81;21351;-81
2023/10/06 09:14:59;;;;;;;14.85;5.15;;;;;;;25.17;30.09;100234.24;1754588;81;21326;-81
2023/10/06 09:18:07;;;;;;;18.17;6.10;;;;;;;25.26;29.48;100227.52;1742620;81;21320;-81
2023/10/06 09:21:27;;;;;;;15.93;6.05;;;;;;;25.03;29.59;100221.84;1741302;82;22141;-81
2023/10/06 09:24:33;;;;;;;15.68;6.17;;;;;;;25.04;29.56;100223.52;1743004;81;21320;-81
2023/10/06 09:27:41;;;;;;;17.10;5.62;;;;;;;24.87;29.46;100227.08;1741900;82;22609;-81
2023/10/06 09:31:08;;;;;;;16.40;5.53;;;;;;;24.80;29.35;100219.52;1742395;81;21863;-81
2023/10/06 09:34:13;;;;;;;13.08;5.97;;;;;;;24.77;29.76;100214.45;1764839;81;21314;-81
2023/10/06 09:37:31;;;;;;;14.00;5.95;;;;;;;24.89;29.80;100212.25;1751714;81;21314;-81
2023/10/06 09:40:39;;;;;;;16.73;5.42;;;;;;;24.86;29.85;100210.02;1772842;81;21302;-81
2023/10/06 09:43:47;;;;;;;11.60;5.30;;;;;;;24.80;29.78;100208.32;1726478;81;21290;-81
2023/10/06 09:46:53;;;;;;;18.67;5.58;;;;;;;24.69;29.88;100210.20;1763326;81;21290;-81
2023/10/06 09:49:59;;;;;;;16.55;5.55;;;;;;;24.80;29.97;100205.53;1745487;82;21337;-81
2023/10/06 09:53:05;;;;;;;19.07;5.53;;;;;;;24.74;29.79;100212.47;1718727;81;21340;-82
2023/10/06 09:56:12;;;;;;;11.75;5.45;;;;;;;24.74;29.71;100202.67;1759490;81;21878;-80
2023/10/06 09:59:19;;;;;;;13.38;5.80;;;;;;;24.78;29.75;100195.15;1761711;80;21909;-80
2023/10/06 10:02:25;;;;;;;11.75;5.37;;;;;;;24.74;30.01;100187.85;1721577;83;21305;-81
2023/10/06 10:05:31;;;;;;;12.82;5.72;;;;;;;24.82;29.30;100183.70;1725937;83;21921;-81
2023/10/06 10:08:37;;;;;;;13.95;4.92;;;;;;;24.91;29.31;100177.30;1740656;81;21975;-81
2023/10/06 10:11:43;;;;;;;9.63;5.28;;;;;;;24.91;29.29;100182.90;1725446;81;21359;-80
2023/10/06 10:15:12;;;;;;;16.42;5.95;;;;;;;24.82;28.88;100182.30;1730066;81;21299;-81
2023/10/06 10:18:29;;;;;;;13.50;6.00;;;;;;;24.82;28.58;100185.94;1713878;83;21298;-81
2023/10/06 10:21:35;;;;;;;9.18;5.20;;;;;;;24.84;28.63;100185.66;1738440;81;21350;-81
2023/10/06 10:24:44;;;;;;;19.70;5.75;;;;;;;25.08;28.85;100179.92;1690524;84;21330;-81
2023/10/06 10:27:51;;;;;;;16.87;4.95;;;;;;;25.17;28.93;100177.40;1745914;82;22001;-81
2023/10/06 10:31:16;;;;;;;15.85;5.33;;;;;;;25.35;28.61;100179.68;1712792;83;21963;-80
2023/10/06 10:34:22;;;;;;;14.43;5.53;;;;;;;25.59;28.55;100186.16;1728805;81;21859;-80
2023/10/06 10:37:35;;;;;;;8.30;4.65;;;;;;;25.76;28.47;100174.16;1723939;81;22105;-80
2023/10/06 10:40:56;;;;;;;10.00;4.83;;;;;;;25.80;28.30;100172.48;1725362;83;21774;-81
2023/10/06 10:44:01;;;;;;;12.53;5.80;;;;;;;25.64;28.39;100174.42;1724417;83;21340;-81
2023/10/06 10:47:09;;;;;;;15.08;5.28;;;;;;;25.61;28.54;100170.77;1724096;83;21326;-81
2023/10/06 10:50:08;;;;;;;9.90;4.35;;;;;;;25.55;28.73;100172.42;1716879;81;21329;-81
2023/10/06 10:53:15;;;;;;;12.45;5.87;;;;;;;25.46;28.29;100174.39;1708521;83;21354;-81
2023/10/06 10:56:27;;;;;;;23.27;4.90;;;;;;;25.42;28.34;100162.63;1724051;83;21262;-81
2023/10/06 10:59:33;;;;;;;10.58;4.80;;;;;;;25.55;28.27;100164.02;1747544;81;21847;-81
2023/10/06 11:03:04;;;;;;;12.07;3.47;;;;;;;25.63;28.66;100167.11;1641253;83;21318;-81
2023/10/06 11:06:12;;;;;;;11.03;5.08;;;;;;;25.62;28.43;100173.00;1672855;85;21386;-81
2023/10/06 11:09:46;;;;;;;8.00;3.95;;;;;;;25.55;28.27;100164.89;1714721;83;21296;-81
2023/10/06 11:12:50;;;;;;;16.15;3.90;;;;;;;25.60;28.07;100168.25;1716306;82;22062;-80
2023/10/06 11:15:55;;;;;;;11.25;3.90;;;;;;;25.51;27.94;100151.73;1689736;85;21283;-80
2023/10/06 11:19:03;;;;;;;7.83;3.80;;;;;;;25.51;28.13;100153.97;1706438;84;21238;-80
2023/10/06 11:22:27;;;;;;;5.75;3.27;;;;;;;25.62;27.86;100161.23;1694431;83;21307;-80
2023/10/06 11:25:38;;;;;;;9.38;3.55;;;;;;;25.67;27.49;100162.64;1691312;83;21372;-80
2023/10/06 11:28:50;;;;;;;7.60;3.22;;;;;;;25.71;27.10;100154.52;1689467;83;21338;-81
2023/10/06 11:31:57;;;;;;;15.70;3.20;;;;;;;25.71;27.09;100155.36;1698093;83;21319;-80
2023/10/06 11:35:02;;;;;;;4.62;2.37;;;;;;;25.73;27.28;100157.30;1689618;83;21338;-80
2023/10/06 11:38:11;;;;;;;5.35;2.65;;;;;;;25.81;25.27;100155.95;1672226;85;21470;-81
2023/10/06 11:41:16;;;;;;;9.98;3.20;;;;;;;25.88;24.67;100152.87;1711834;83;22490;-80
2023/10/06 11:44:22;;;;;;;9.05;2.27;;;;;;;25.96;24.57;100156.48;1708394;83;21307;-80
2023/10/06 11:47:35;;;;;;;8.38;2.87;;;;;;;25.88;24.89;100165.48;1708339;83;21664;-80
2023/10/06 11:50:42;;;;;;;10.13;3.15;;;;;;;25.83;25.07;100152.85;1698683;83;21275;-80
2023/10/06 11:53:48;;;;;;;7.50;3.17;;;;;;;25.86;24.76;100153.14;1692190;83;21332;-80
2023/10/06 11:56:59;;;;;;;8.18;2.70;;;;;;;25.86;24.12;100152.30;1700822;83;21320;-81
2023/10/06 12:00:10;;;;;;;5.60;2.92;;;;;;;25.75;24.11;100157.05;1691939;83;21322;-80
2023/10/06 12:03:16;;;;;;;4.58;2.42;;;;;;;25.57;24.44;100147.80;1739725;80;21334;-80
2023/10/06 12:06:23;;;;;;;8.88;2.90;;;;;;;25.42;24.31;100143.88;1709788;83;21327;-80
2023/10/06 12:09:35;;;;;;;9.15;2.90;;;;;;;25.39;24.78;100154.78;1770789;80;21317;-80
2023/10/06 12:12:42;;;;;;;13.40;3.10;;;;;;;25.43;24.64;100148.34;1767535;80;21306;-80
2023/10/06 12:15:50;;;;;;;6.08;2.58;;;;;;;25.51;24.52;100134.92;1748608;81;21881;-80
2023/10/06 12:18:59;;;;;;;12.88;2.85;;;;;;;25.47;24.54;100150.03;1741575;80;21656;-80
2023/10/06 12:22:08;;;;;;;8.20;3.00;;;;;;;25.38;24.70;100153.11;1780677;80;21176;-80
2023/10/06 12:25:22;;;;;;;8.98;2.85;;;;;;;25.45;25.15;100154.52;1776327;81;21291;-80
2023/10/06 12:28:25;;;;;;;12.85;2.45;;;;;;;25.46;25.11;100146.96;1776413;81;21165;-80
2023/10/06 12:31:31;;;;;;;9.05;2.75;;;;;;;25.08;25.32;100151.94;1775870;81;21850;-80
2023/10/06 12:34:37;;;;;;;6.33;2.67;;;;;;;25.04;25.32;100155.53;1783136;80;21349;-80
2023/10/06 12:37:43;;;;;;;13.60;3.02;;;;;;;24.71;25.84;100152.91;1784529;80;21192;-80
2023/10/06 12:40:48;;;;;;;7.92;2.85;;;;;;;24.65;26.30;100151.18;1785176;80;21345;-81
2023/10/06 12:43:54;;;;;;;4.50;2.42;;;;;;;24.88;26.22;100147.07;1785326;80;21302;-81
2023/10/06 12:47:03;;;;;;;7.08;2.72;;;;;;;24.76;26.08;100135.30;1784423;80;21326;-81
2023/10/06 12:50:08;;;;;;;11.90;3.27;;;;;;;24.81;26.24;100149.86;1786066;80;21928;-80
2023/10/06 12:53:11;;;;;;;15.13;3.77;;;;;;;24.74;27.35;100169.11;1786033;80;21334;-80
2023/10/06 12:56:17;;;;;;;9.23;3.60;;;;;;;24.67;28.28;100171.34;1784536;80;21330;-80
2023/10/06 12:59:23;;;;;;;17.52;3.40;;;;;;;24.48;28.75;100168.73;1785756;80;21338;-80
2023/10/06 13:02:31;;;;;;;17.55;3.12;;;;;;;24.60;28.87;100165.14;1784860;80;21361;-80
2023/10/06 13:05:36;;;;;;;14.83;3.58;;;;;;;24.63;28.64;100167.41;1776675;80;21318;-80
2023/10/06 13:08:41;;;;;;;15.68;3.98;;;;;;;24.58;28.88;100166.55;1777539;80;21669;-80
2023/10/06 13:11:47;;;;;;;8.75;3.37;;;;;;;24.71;28.99;100173.05;1776341;80;21299;-80
2023/10/06 13:14:54;;;;;;;7.37;3.72;;;;;;;24.44;29.09;100173.18;1777309;80;21330;-80
2023/10/06 13:18:00;;;;;;;17.85;6.08;;;;;;;24.24;29.37;100182.27;1780310;80;21287;-80
2023/10/06 13:21:10;;;;;;;9.03;3.70;;;;;;;23.97;29.97;100186.53;1787652;80;21338;-80
2023/10/06 13:24:13;;;;;;;11.25;3.80;;;;;;;23.77;30.12;100185.83;1787917;80;21980;-80
2023/10/06 13:27:19;;;;;;;8.88;3.12;;;;;;;23.84;30.06;100179.45;1787445;80;21299;-80
2023/10/06 13:30:26;;;;;;;15.35;3.40;;;;;;;23.58;30.17;100178.38;1786925;80;21345;-80
2023/10/06 13:33:33;;;;;;;9.25;3.10;;;;;;;23.54;30.06;100171.63;1782550;80;21326;-80
2023/10/06 13:36:41;;;;;;;11.28;2.35;;;;;;;23.65;29.37;100181.80;1776060;80;21334;-80
2023/10/06 13:39:48;;;;;;;16.85;2.30;;;;;;;23.57;28.85;100190.66;1777150;80;21933;-79
2023/10/06 13:42:55;;;;;;;9.75;2.05;;;;;;;23.55;27.97;100185.87;1777167;80;21850;-80
2023/10/06 13:46:01;;;;;;;10.00;1.90;;;;;;;23.45;27.75;100185.78;1778547;80;21295;-80
2023/10/06 13:49:06;;;;;;;10.30;1.98;;;;;;;23.36;26.90;100216.66;1784924;80;21897;-80
2023/10/06 13:52:13;;;;;;;11.75;2.20;;;;;;;23.29;26.99;100192.30;1787550;80;21338;-80
2023/10/06 13:55:20;;;;;;;6.65;2.10;;;;;;;23.24;26.73;100184.71;1720591;83;21389;-80
2023/10/06 13:58:26;;;;;;;14.90;2.37;;;;;;;23.08;27.98;100206.58;1750231;82;21331;-80
2023/10/06 14:01:33;;;;;;;8.95;2.50;;;;;;;23.26;28.10;100207.63;1720160;83;21678;-81
2023/10/06 14:04:39;;;;;;;11.43;2.55;;;;;;;22.99;28.39;100218.75;1738186;81;21382;-81
2023/10/06 14:07:46;;;;;;;9.83;2.33;;;;;;;22.93;28.13;100205.86;1761097;81;21886;-80
2023/10/06 14:10:52;;;;;;;26.75;2.37;;;;;;;22.99;27.68;100212.33;1706696;84;21355;-79
2023/10/06 14:13:58;;;;;;;5.55;1.90;;;;;;;23.01;27.57;100222.66;1763034;81;21323;-80
2023/10/06 14:17:10;;;;;;;9.30;1.80;;;;;;;22.97;26.87;100231.29;1760714;81;21834;-80
2023/10/06 14:20:23;;;;;;;10.90;2.12;;;;;;;22.89;26.09;100226.44;1707014;84;21351;-80
2023/10/06 14:23:24;;;;;;;10.28;2.50;;;;;;;22.78;26.13;100234.36;1762349;81;22146;-79
2023/10/06 14:26:30;;;;;;;17.45;2.20;;;;;;;22.71;26.18;100249.03;1761449;81;21315;-80
2023/10/06 14:29:36;;;;;;;12.25;2.20;;;;;;;22.52;25.96;100235.94;1761979;81;21335;-80
2023/10/06 14:32:55;;;;;;;8.88;1.70;;;;;;;22.23;25.75;100233.84;1756703;81;21925;-80
2023/10/06 14:46:01;;;;;;;14.85;2.00;;;;;;;22.13;26.33;100264.33;1736052;82;21324;-81